Altmar, New York
Current Conditions -  °F | °C
As of 2:54 AM on Sunday 23 Nov 2014 (Local Time) from KFZY Reporting Station
Light Rain Light Rain  
Wind Chill: 39°   Ceiling: 2500
Heat Index: 43°   Visibility: 6mi
Dew Point: 40°   Wind: 7mph
Humidity: 89%   Direction: 200°SSW
Pressure: 30.01"   Gusts: NA
Location:  43.51°N, 76°W
Report Text: KFZY 230754Z AUTO 20006KT 6SM -RA BR OVC025 06/04 A3001 RMK AO2 SLP166 P0005 T00610044
Loading
Personal Weather Stations






























Interactive Weather Map New forecast layout! Learn more

10-Day Weather Forecast

Advertisements
Track Severe Weather on mobile